Terminal Aerodrome Forecast
Issued by NWS

Home | Current Version | Previous Version | Text Only | Print | Product List | Glossary On
Versions: 1 2 3 4 5 6 7 8 9 10 11 12 13 14 15
000
FTUS43 KMQT 011722
TAFCMX
TAF
KCMX 011722Z 0118/0218 33004KT P6SM FEW150
     FM020000 VRB03KT P6SM BKN120
     FM021500 23006KT P6SM BKN090=

USA.gov is the U.S. government's official web portal to all federal, state and local government web resources and services.